sensor_id;sensor_type;location;lat;lon;timestamp;P1;durP1;ratioP1;P2;durP2;ratioP2
35126;SDS011;21300;52.006;5.798;2022-12-20T00:01:09;8.40;;;4.15;;
35126;SDS011;21300;52.006;5.798;2022-12-20T00:03:37;5.57;;;3.40;;
35126;SDS011;21300;52.006;5.798;2022-12-20T00:06:03;8.23;;;3.80;;
35126;SDS011;21300;52.006;5.798;2022-12-20T00:08:29;5.88;;;3.40;;
35126;SDS011;21300;52.006;5.798;2022-12-20T00:10:58;5.78;;;3.40;;
35126;SDS011;21300;52.006;5.798;2022-12-20T00:13:25;6.32;;;3.85;;
35126;SDS011;21300;52.006;5.798;2022-12-20T00:16:01;5.32;;;3.40;;
35126;SDS011;21300;52.006;5.798;2022-12-20T00:18:28;7.28;;;2.97;;
35126;SDS011;21300;52.006;5.798;2022-12-20T00:20:57;3.95;;;2.28;;
35126;SDS011;21300;52.006;5.798;2022-12-20T00:23:26;7.25;;;2.75;;
35126;SDS011;21300;52.006;5.798;2022-12-20T00:25:58;6.97;;;3.03;;
35126;SDS011;21300;52.006;5.798;2022-12-20T00:28:34;8.20;;;3.15;;
35126;SDS011;21300;52.006;5.798;2022-12-20T00:31:01;7.85;;;3.28;;
35126;SDS011;21300;52.006;5.798;2022-12-20T00:33:28;6.55;;;4.10;;
35126;SDS011;21300;52.006;5.798;2022-12-20T00:35:54;5.05;;;1.75;;
35126;SDS011;21300;52.006;5.798;2022-12-20T00:38:21;7.60;;;3.50;;
35126;SDS011;21300;52.006;5.798;2022-12-20T00:40:47;6.30;;;3.13;;
35126;SDS011;21300;52.006;5.798;2022-12-20T00:43:22;4.90;;;3.58;;
35126;SDS011;21300;52.006;5.798;2022-12-20T00:45:48;7.75;;;3.38;;
35126;SDS011;21300;52.006;5.798;2022-12-20T00:48:14;5.38;;;2.85;;
35126;SDS011;21300;52.006;5.798;2022-12-20T00:50:39;5.72;;;3.50;;
35126;SDS011;21300;52.006;5.798;2022-12-20T00:53:05;6.95;;;3.20;;
35126;SDS011;21300;52.006;5.798;2022-12-20T00:55:33;6.93;;;3.55;;
35126;SDS011;21300;52.006;5.798;2022-12-20T00:57:59;7.53;;;3.13;;
35126;SDS011;21300;52.006;5.798;2022-12-20T01:00:25;4.90;;;3.38;;
35126;SDS011;21300;52.006;5.798;2022-12-20T01:02:50;4.18;;;2.75;;
35126;SDS011;21300;52.006;5.798;2022-12-20T01:05:16;5.28;;;3.28;;
35126;SDS011;21300;52.006;5.798;2022-12-20T01:07:41;3.75;;;2.97;;
35126;SDS011;21300;52.006;5.798;2022-12-20T01:10:07;6.78;;;2.13;;
35126;SDS011;21300;52.006;5.798;2022-12-20T01:12:33;4.47;;;3.17;;
35126;SDS011;21300;52.006;5.798;2022-12-20T01:14:59;6.50;;;3.72;;
35126;SDS011;21300;52.006;5.798;2022-12-20T01:17:24;5.13;;;2.97;;
35126;SDS011;21300;52.006;5.798;2022-12-20T01:19:50;5.93;;;2.88;;
35126;SDS011;21300;52.006;5.798;2022-12-20T01:22:15;6.03;;;3.85;;
35126;SDS011;21300;52.006;5.798;2022-12-20T01:24:41;7.28;;;2.75;;
35126;SDS011;21300;52.006;5.798;2022-12-20T01:27:06;5.88;;;3.05;;
35126;SDS011;21300;52.006;5.798;2022-12-20T01:29:32;6.32;;;3.17;;
35126;SDS011;21300;52.006;5.798;2022-12-20T01:31:57;8.13;;;3.45;;
35126;SDS011;21300;52.006;5.798;2022-12-20T01:34:23;6.65;;;3.70;;
35126;SDS011;21300;52.006;5.798;2022-12-20T01:36:49;6.88;;;3.17;;
35126;SDS011;21300;52.006;5.798;2022-12-20T01:39:15;6.50;;;3.53;;
35126;SDS011;21300;52.006;5.798;2022-12-20T01:41:41;8.55;;;3.92;;
35126;SDS011;21300;52.006;5.798;2022-12-20T01:46:41;9.07;;;2.95;;
35126;SDS011;21300;52.006;5.798;2022-12-20T01:49:11;8.35;;;3.17;;
35126;SDS011;21300;52.006;5.798;2022-12-20T01:51:59;6.53;;;4.20;;
35126;SDS011;21300;52.006;5.798;2022-12-20T01:54:33;8.48;;;3.50;;
35126;SDS011;21300;52.006;5.798;2022-12-20T01:57:01;9.25;;;4.15;;
35126;SDS011;21300;52.006;5.798;2022-12-20T01:59:30;7.70;;;3.75;;
35126;SDS011;21300;52.006;5.798;2022-12-20T02:02:00;6.65;;;3.55;;
35126;SDS011;21300;52.006;5.798;2022-12-20T02:04:28;8.30;;;4.40;;
35126;SDS011;21300;52.006;5.798;2022-12-20T02:06:54;6.38;;;3.88;;
35126;SDS011;21300;52.006;5.798;2022-12-20T02:09:22;8.55;;;3.75;;
35126;SDS011;21300;52.006;5.798;2022-12-20T02:14:42;5.30;;;3.25;;
35126;SDS011;21300;52.006;5.798;2022-12-20T02:19:48;6.15;;;3.67;;
35126;SDS011;21300;52.006;5.798;2022-12-20T02:30:57;8.50;;;3.28;;
35126;SDS011;21300;52.006;5.798;2022-12-20T02:33:27;6.15;;;3.28;;
35126;SDS011;21300;52.006;5.798;2022-12-20T02:35:52;8.90;;;4.05;;
35126;SDS011;21300;52.006;5.798;2022-12-20T02:40:50;7.07;;;4.07;;
35126;SDS011;21300;52.006;5.798;2022-12-20T02:43:21;6.18;;;3.60;;
35126;SDS011;21300;52.006;5.798;2022-12-20T02:48:34;5.95;;;3.72;;
35126;SDS011;21300;52.006;5.798;2022-12-20T02:51:02;5.97;;;4.25;;
35126;SDS011;21300;52.006;5.798;2022-12-20T02:53:30;9.50;;;4.10;;
35126;SDS011;21300;52.006;5.798;2022-12-20T02:56:11;8.15;;;4.35;;
35126;SDS011;21300;52.006;5.798;2022-12-20T02:58:48;11.75;;;4.60;;
35126;SDS011;21300;52.006;5.798;2022-12-20T03:01:20;5.40;;;3.67;;
35126;SDS011;21300;52.006;5.798;2022-12-20T03:03:50;8.35;;;4.60;;
35126;SDS011;21300;52.006;5.798;2022-12-20T03:06:18;6.82;;;3.78;;
35126;SDS011;21300;52.006;5.798;2022-12-20T03:08:44;7.53;;;4.35;;
35126;SDS011;21300;52.006;5.798;2022-12-20T03:11:10;6.15;;;4.00;;
35126;SDS011;21300;52.006;5.798;2022-12-20T03:13:36;5.47;;;3.85;;
35126;SDS011;21300;52.006;5.798;2022-12-20T03:16:01;7.28;;;4.38;;
35126;SDS011;21300;52.006;5.798;2022-12-20T03:18:27;7.40;;;4.53;;
35126;SDS011;21300;52.006;5.798;2022-12-20T03:20:53;7.50;;;4.57;;
35126;SDS011;21300;52.006;5.798;2022-12-20T03:23:18;9.52;;;5.53;;
35126;SDS011;21300;52.006;5.798;2022-12-20T03:25:45;9.85;;;5.32;;
35126;SDS011;21300;52.006;5.798;2022-12-20T03:28:11;4.82;;;3.40;;
35126;SDS011;21300;52.006;5.798;2022-12-20T03:30:37;5.15;;;3.53;;
35126;SDS011;21300;52.006;5.798;2022-12-20T03:33:02;4.18;;;2.88;;
35126;SDS011;21300;52.006;5.798;2022-12-20T03:35:28;3.55;;;3.05;;
35126;SDS011;21300;52.006;5.798;2022-12-20T03:37:53;6.97;;;3.92;;
35126;SDS011;21300;52.006;5.798;2022-12-20T03:40:20;10.25;;;5.00;;
35126;SDS011;21300;52.006;5.798;2022-12-20T03:42:46;8.30;;;4.35;;
35126;SDS011;21300;52.006;5.798;2022-12-20T03:45:12;9.50;;;4.82;;
35126;SDS011;21300;52.006;5.798;2022-12-20T03:47:37;6.78;;;4.35;;
35126;SDS011;21300;52.006;5.798;2022-12-20T03:50:04;4.43;;;2.45;;
35126;SDS011;21300;52.006;5.798;2022-12-20T03:52:30;6.45;;;4.20;;
35126;SDS011;21300;52.006;5.798;2022-12-20T03:54:56;7.80;;;4.70;;
35126;SDS011;21300;52.006;5.798;2022-12-20T03:57:21;6.90;;;4.70;;
35126;SDS011;21300;52.006;5.798;2022-12-20T03:59:47;8.68;;;2.85;;
35126;SDS011;21300;52.006;5.798;2022-12-20T04:02:13;10.23;;;4.38;;
35126;SDS011;21300;52.006;5.798;2022-12-20T04:04:38;6.20;;;3.72;;
35126;SDS011;21300;52.006;5.798;2022-12-20T04:07:04;6.85;;;4.25;;
35126;SDS011;21300;52.006;5.798;2022-12-20T04:09:30;7.88;;;3.85;;
35126;SDS011;21300;52.006;5.798;2022-12-20T04:11:55;7.80;;;3.92;;
35126;SDS011;21300;52.006;5.798;2022-12-20T04:14:21;4.97;;;3.60;;
35126;SDS011;21300;52.006;5.798;2022-12-20T04:16:46;4.40;;;3.58;;
35126;SDS011;21300;52.006;5.798;2022-12-20T04:19:12;6.00;;;4.13;;
35126;SDS011;21300;52.006;5.798;2022-12-20T04:21:37;8.52;;;3.75;;
35126;SDS011;21300;52.006;5.798;2022-12-20T04:24:03;5.35;;;3.58;;
35126;SDS011;21300;52.006;5.798;2022-12-20T04:26:29;6.15;;;3.63;;
35126;SDS011;21300;52.006;5.798;2022-12-20T04:28:56;6.15;;;3.30;;
35126;SDS011;21300;52.006;5.798;2022-12-20T04:31:22;7.15;;;3.65;;
35126;SDS011;21300;52.006;5.798;2022-12-20T04:33:47;5.60;;;3.63;;
35126;SDS011;21300;52.006;5.798;2022-12-20T04:36:13;8.55;;;3.63;;
35126;SDS011;21300;52.006;5.798;2022-12-20T04:38:40;5.88;;;3.45;;
35126;SDS011;21300;52.006;5.798;2022-12-20T04:41:05;7.97;;;3.85;;
35126;SDS011;21300;52.006;5.798;2022-12-20T04:43:31;5.63;;;3.33;;
35126;SDS011;21300;52.006;5.798;2022-12-20T04:45:57;6.55;;;3.60;;
35126;SDS011;21300;52.006;5.798;2022-12-20T04:48:23;5.10;;;2.83;;
35126;SDS011;21300;52.006;5.798;2022-12-20T04:50:53;6.13;;;3.63;;
35126;SDS011;21300;52.006;5.798;2022-12-20T04:53:20;7.50;;;4.22;;
35126;SDS011;21300;52.006;5.798;2022-12-20T04:56:05;5.72;;;3.83;;
35126;SDS011;21300;52.006;5.798;2022-12-20T04:58:31;5.90;;;3.45;;
35126;SDS011;21300;52.006;5.798;2022-12-20T05:00:57;6.20;;;3.35;;
35126;SDS011;21300;52.006;5.798;2022-12-20T05:03:22;6.55;;;3.60;;
35126;SDS011;21300;52.006;5.798;2022-12-20T05:05:49;5.03;;;3.15;;
35126;SDS011;21300;52.006;5.798;2022-12-20T05:08:15;5.75;;;3.80;;
35126;SDS011;21300;52.006;5.798;2022-12-20T05:10:41;5.60;;;3.83;;
35126;SDS011;21300;52.006;5.798;2022-12-20T05:13:06;8.48;;;4.28;;
35126;SDS011;21300;52.006;5.798;2022-12-20T05:15:32;7.28;;;4.30;;
35126;SDS011;21300;52.006;5.798;2022-12-20T05:17:58;6.40;;;4.63;;
35126;SDS011;21300;52.006;5.798;2022-12-20T05:20:33;8.20;;;3.08;;
35126;SDS011;21300;52.006;5.798;2022-12-20T05:22:59;6.28;;;3.03;;
35126;SDS011;21300;52.006;5.798;2022-12-20T05:25:47;8.10;;;3.90;;
35126;SDS011;21300;52.006;5.798;2022-12-20T05:28:34;7.13;;;3.53;;
35126;SDS011;21300;52.006;5.798;2022-12-20T05:31:00;7.13;;;3.50;;
35126;SDS011;21300;52.006;5.798;2022-12-20T05:33:26;6.55;;;3.78;;
35126;SDS011;21300;52.006;5.798;2022-12-20T05:35:52;6.53;;;3.50;;
35126;SDS011;21300;52.006;5.798;2022-12-20T05:38:18;8.82;;;3.45;;
35126;SDS011;21300;52.006;5.798;2022-12-20T05:40:45;4.65;;;2.00;;
35126;SDS011;21300;52.006;5.798;2022-12-20T05:43:12;6.70;;;2.75;;
35126;SDS011;21300;52.006;5.798;2022-12-20T05:45:38;8.27;;;3.58;;
35126;SDS011;21300;52.006;5.798;2022-12-20T05:48:03;8.52;;;3.63;;
35126;SDS011;21300;52.006;5.798;2022-12-20T05:50:29;3.63;;;3.08;;
35126;SDS011;21300;52.006;5.798;2022-12-20T05:52:54;6.43;;;3.50;;
35126;SDS011;21300;52.006;5.798;2022-12-20T05:55:20;5.43;;;3.45;;
35126;SDS011;21300;52.006;5.798;2022-12-20T05:57:45;5.57;;;4.30;;
35126;SDS011;21300;52.006;5.798;2022-12-20T06:00:11;4.22;;;2.83;;
35126;SDS011;21300;52.006;5.798;2022-12-20T06:02:37;6.10;;;3.08;;
35126;SDS011;21300;52.006;5.798;2022-12-20T06:05:03;6.20;;;3.53;;
35126;SDS011;21300;52.006;5.798;2022-12-20T06:07:29;6.80;;;3.63;;
35126;SDS011;21300;52.006;5.798;2022-12-20T06:09:55;7.22;;;4.95;;
35126;SDS011;21300;52.006;5.798;2022-12-20T06:12:22;7.53;;;4.30;;
35126;SDS011;21300;52.006;5.798;2022-12-20T06:14:47;5.00;;;3.45;;
35126;SDS011;21300;52.006;5.798;2022-12-20T06:17:13;9.88;;;4.10;;
35126;SDS011;21300;52.006;5.798;2022-12-20T06:19:39;7.90;;;3.97;;
35126;SDS011;21300;52.006;5.798;2022-12-20T06:22:07;7.05;;;4.15;;
35126;SDS011;21300;52.006;5.798;2022-12-20T06:24:34;7.00;;;3.80;;
35126;SDS011;21300;52.006;5.798;2022-12-20T06:27:00;6.50;;;3.35;;
35126;SDS011;21300;52.006;5.798;2022-12-20T06:29:26;6.60;;;3.67;;
35126;SDS011;21300;52.006;5.798;2022-12-20T06:31:52;6.32;;;3.85;;
35126;SDS011;21300;52.006;5.798;2022-12-20T06:34:18;6.18;;;3.40;;
35126;SDS011;21300;52.006;5.798;2022-12-20T06:36:44;7.50;;;3.97;;
35126;SDS011;21300;52.006;5.798;2022-12-20T06:39:10;7.07;;;4.22;;
35126;SDS011;21300;52.006;5.798;2022-12-20T06:41:36;6.55;;;3.72;;
35126;SDS011;21300;52.006;5.798;2022-12-20T06:44:03;9.05;;;4.03;;
35126;SDS011;21300;52.006;5.798;2022-12-20T06:46:29;13.27;;;4.07;;
35126;SDS011;21300;52.006;5.798;2022-12-20T06:48:55;6.35;;;3.40;;
35126;SDS011;21300;52.006;5.798;2022-12-20T06:51:21;6.40;;;3.45;;
35126;SDS011;21300;52.006;5.798;2022-12-20T06:53:46;6.07;;;3.70;;
35126;SDS011;21300;52.006;5.798;2022-12-20T06:56:12;7.70;;;4.50;;
35126;SDS011;21300;52.006;5.798;2022-12-20T06:58:37;6.55;;;4.88;;
35126;SDS011;21300;52.006;5.798;2022-12-20T07:01:03;4.30;;;2.55;;
35126;SDS011;21300;52.006;5.798;2022-12-20T07:03:29;8.30;;;3.53;;
35126;SDS011;21300;52.006;5.798;2022-12-20T07:05:54;4.57;;;2.55;;
35126;SDS011;21300;52.006;5.798;2022-12-20T07:08:20;5.03;;;3.08;;
35126;SDS011;21300;52.006;5.798;2022-12-20T07:10:47;6.78;;;3.22;;
35126;SDS011;21300;52.006;5.798;2022-12-20T07:13:12;5.90;;;3.70;;
35126;SDS011;21300;52.006;5.798;2022-12-20T07:15:38;4.47;;;3.17;;
35126;SDS011;21300;52.006;5.798;2022-12-20T07:18:04;4.15;;;3.03;;
35126;SDS011;21300;52.006;5.798;2022-12-20T07:20:30;5.30;;;2.72;;
35126;SDS011;21300;52.006;5.798;2022-12-20T07:22:56;6.60;;;3.53;;
35126;SDS011;21300;52.006;5.798;2022-12-20T07:25:22;7.15;;;3.85;;
35126;SDS011;21300;52.006;5.798;2022-12-20T07:27:48;6.25;;;3.40;;
35126;SDS011;21300;52.006;5.798;2022-12-20T07:30:15;11.20;;;3.40;;
35126;SDS011;21300;52.006;5.798;2022-12-20T07:32:59;3.63;;;1.83;;
35126;SDS011;21300;52.006;5.798;2022-12-20T07:35:25;7.18;;;3.92;;
35126;SDS011;21300;52.006;5.798;2022-12-20T07:37:50;7.28;;;2.80;;
35126;SDS011;21300;52.006;5.798;2022-12-20T07:40:16;7.18;;;3.60;;
35126;SDS011;21300;52.006;5.798;2022-12-20T07:42:41;3.15;;;2.17;;
35126;SDS011;21300;52.006;5.798;2022-12-20T07:45:07;12.25;;;3.80;;
35126;SDS011;21300;52.006;5.798;2022-12-20T07:47:33;7.25;;;3.65;;
35126;SDS011;21300;52.006;5.798;2022-12-20T07:49:59;7.82;;;3.53;;
35126;SDS011;21300;52.006;5.798;2022-12-20T07:52:25;7.53;;;3.28;;
35126;SDS011;21300;52.006;5.798;2022-12-20T07:54:55;8.25;;;4.53;;
35126;SDS011;21300;52.006;5.798;2022-12-20T07:57:26;9.27;;;3.15;;
35126;SDS011;21300;52.006;5.798;2022-12-20T07:59:56;8.27;;;3.85;;
35126;SDS011;21300;52.006;5.798;2022-12-20T08:02:29;6.13;;;4.18;;
35126;SDS011;21300;52.006;5.798;2022-12-20T08:05:01;8.50;;;3.70;;
35126;SDS011;21300;52.006;5.798;2022-12-20T08:07:29;5.38;;;3.88;;
35126;SDS011;21300;52.006;5.798;2022-12-20T08:09:55;9.43;;;4.43;;
35126;SDS011;21300;52.006;5.798;2022-12-20T08:12:21;9.95;;;4.32;;
35126;SDS011;21300;52.006;5.798;2022-12-20T08:14:48;10.30;;;3.72;;
35126;SDS011;21300;52.006;5.798;2022-12-20T08:17:16;6.78;;;3.13;;
35126;SDS011;21300;52.006;5.798;2022-12-20T08:19:42;5.28;;;2.80;;
35126;SDS011;21300;52.006;5.798;2022-12-20T08:22:08;8.55;;;4.22;;
35126;SDS011;21300;52.006;5.798;2022-12-20T08:24:33;7.13;;;3.50;;
35126;SDS011;21300;52.006;5.798;2022-12-20T08:26:59;7.80;;;4.43;;
35126;SDS011;21300;52.006;5.798;2022-12-20T08:29:24;5.38;;;3.30;;
35126;SDS011;21300;52.006;5.798;2022-12-20T08:31:50;9.60;;;3.03;;
35126;SDS011;21300;52.006;5.798;2022-12-20T08:34:16;7.63;;;3.67;;
35126;SDS011;21300;52.006;5.798;2022-12-20T08:36:42;4.90;;;2.65;;
35126;SDS011;21300;52.006;5.798;2022-12-20T08:41:52;4.43;;;3.15;;
35126;SDS011;21300;52.006;5.798;2022-12-20T08:44:17;6.50;;;3.40;;
35126;SDS011;21300;52.006;5.798;2022-12-20T08:46:43;7.03;;;3.97;;
35126;SDS011;21300;52.006;5.798;2022-12-20T08:49:08;5.82;;;3.28;;
35126;SDS011;21300;52.006;5.798;2022-12-20T08:51:34;8.70;;;3.60;;
35126;SDS011;21300;52.006;5.798;2022-12-20T08:53:59;3.70;;;2.42;;
35126;SDS011;21300;52.006;5.798;2022-12-20T08:56:26;5.80;;;3.25;;
35126;SDS011;21300;52.006;5.798;2022-12-20T08:58:52;9.25;;;3.92;;
35126;SDS011;21300;52.006;5.798;2022-12-20T09:01:18;8.00;;;4.15;;
35126;SDS011;21300;52.006;5.798;2022-12-20T09:03:46;5.38;;;3.08;;
35126;SDS011;21300;52.006;5.798;2022-12-20T09:06:13;3.38;;;2.25;;
35126;SDS011;21300;52.006;5.798;2022-12-20T09:08:44;8.98;;;3.58;;
35126;SDS011;21300;52.006;5.798;2022-12-20T09:11:18;6.05;;;3.42;;
35126;SDS011;21300;52.006;5.798;2022-12-20T09:13:49;5.28;;;3.38;;
35126;SDS011;21300;52.006;5.798;2022-12-20T09:16:17;7.75;;;3.10;;
35126;SDS011;21300;52.006;5.798;2022-12-20T09:18:47;7.07;;;3.25;;
35126;SDS011;21300;52.006;5.798;2022-12-20T09:21:17;9.10;;;3.55;;
35126;SDS011;21300;52.006;5.798;2022-12-20T09:23:43;10.95;;;4.22;;
35126;SDS011;21300;52.006;5.798;2022-12-20T09:26:10;12.20;;;3.88;;
35126;SDS011;21300;52.006;5.798;2022-12-20T09:28:37;10.30;;;3.13;;
35126;SDS011;21300;52.006;5.798;2022-12-20T09:31:04;1.75;;;0.93;;
35126;SDS011;21300;52.006;5.798;2022-12-20T09:33:32;5.80;;;2.88;;
35126;SDS011;21300;52.006;5.798;2022-12-20T09:35:59;7.50;;;3.85;;
35126;SDS011;21300;52.006;5.798;2022-12-20T09:38:26;6.93;;;3.92;;
35126;SDS011;21300;52.006;5.798;2022-12-20T09:40:54;7.82;;;4.10;;
35126;SDS011;21300;52.006;5.798;2022-12-20T09:43:21;7.95;;;3.92;;
35126;SDS011;21300;52.006;5.798;2022-12-20T09:45:50;7.45;;;3.60;;
35126;SDS011;21300;52.006;5.798;2022-12-20T09:48:19;10.00;;;3.90;;
35126;SDS011;21300;52.006;5.798;2022-12-20T09:51:03;7.28;;;4.13;;
35126;SDS011;21300;52.006;5.798;2022-12-20T09:53:45;9.27;;;4.40;;
35126;SDS011;21300;52.006;5.798;2022-12-20T09:56:29;8.73;;;3.92;;
35126;SDS011;21300;52.006;5.798;2022-12-20T09:59:04;9.52;;;4.07;;
35126;SDS011;21300;52.006;5.798;2022-12-20T10:01:48;10.57;;;4.88;;
35126;SDS011;21300;52.006;5.798;2022-12-20T10:04:27;11.05;;;3.92;;
35126;SDS011;21300;52.006;5.798;2022-12-20T10:10:02;11.07;;;3.80;;
35126;SDS011;21300;52.006;5.798;2022-12-20T10:15:48;8.38;;;4.30;;
35126;SDS011;21300;52.006;5.798;2022-12-20T10:24:15;8.48;;;3.53;;
35126;SDS011;21300;52.006;5.798;2022-12-20T10:26:43;7.45;;;3.83;;
35126;SDS011;21300;52.006;5.798;2022-12-20T10:29:13;7.35;;;4.10;;
35126;SDS011;21300;52.006;5.798;2022-12-20T10:31:39;9.38;;;3.97;;
35126;SDS011;21300;52.006;5.798;2022-12-20T10:34:05;5.82;;;3.20;;
35126;SDS011;21300;52.006;5.798;2022-12-20T10:36:33;6.68;;;3.45;;
35126;SDS011;21300;52.006;5.798;2022-12-20T10:39:02;4.35;;;3.50;;
35126;SDS011;21300;52.006;5.798;2022-12-20T10:41:44;7.78;;;4.65;;
35126;SDS011;21300;52.006;5.798;2022-12-20T10:44:15;8.32;;;4.20;;
35126;SDS011;21300;52.006;5.798;2022-12-20T10:46:48;9.00;;;5.03;;
35126;SDS011;21300;52.006;5.798;2022-12-20T10:51:56;6.45;;;4.28;;
35126;SDS011;21300;52.006;5.798;2022-12-20T10:59:41;11.30;;;5.80;;
35126;SDS011;21300;52.006;5.798;2022-12-20T11:05:21;10.93;;;4.80;;
35126;SDS011;21300;52.006;5.798;2022-12-20T11:07:55;8.45;;;3.85;;
35126;SDS011;21300;52.006;5.798;2022-12-20T11:10:22;8.48;;;5.55;;
35126;SDS011;21300;52.006;5.798;2022-12-20T11:15:27;10.30;;;4.63;;
35126;SDS011;21300;52.006;5.798;2022-12-20T11:20:37;8.63;;;5.00;;
35126;SDS011;21300;52.006;5.798;2022-12-20T11:26:34;10.98;;;5.53;;
35126;SDS011;21300;52.006;5.798;2022-12-20T11:29:52;9.55;;;6.25;;
35126;SDS011;21300;52.006;5.798;2022-12-20T11:32:33;11.40;;;5.72;;
35126;SDS011;21300;52.006;5.798;2022-12-20T11:37:42;11.48;;;6.30;;
35126;SDS011;21300;52.006;5.798;2022-12-20T11:40:31;9.52;;;5.85;;
35126;SDS011;21300;52.006;5.798;2022-12-20T11:46:24;8.65;;;4.90;;
35126;SDS011;21300;52.006;5.798;2022-12-20T11:48:58;10.05;;;5.53;;
35126;SDS011;21300;52.006;5.798;2022-12-20T11:51:47;11.70;;;5.50;;
35126;SDS011;21300;52.006;5.798;2022-12-20T11:54:20;10.18;;;5.07;;
35126;SDS011;21300;52.006;5.798;2022-12-20T11:57:03;13.13;;;5.32;;
35126;SDS011;21300;52.006;5.798;2022-12-20T12:05:05;10.32;;;5.47;;
35126;SDS011;21300;52.006;5.798;2022-12-20T12:07:39;8.65;;;5.15;;
35126;SDS011;21300;52.006;5.798;2022-12-20T12:10:14;11.88;;;6.40;;
35126;SDS011;21300;52.006;5.798;2022-12-20T12:12:47;14.55;;;7.75;;
35126;SDS011;21300;52.006;5.798;2022-12-20T12:15:27;16.05;;;8.05;;
35126;SDS011;21300;52.006;5.798;2022-12-20T12:26:19;8.98;;;5.28;;
35126;SDS011;21300;52.006;5.798;2022-12-20T12:28:59;9.25;;;6.93;;
35126;SDS011;21300;52.006;5.798;2022-12-20T12:31:31;15.55;;;7.28;;
35126;SDS011;21300;52.006;5.798;2022-12-20T12:42:21;12.82;;;6.47;;
35126;SDS011;21300;52.006;5.798;2022-12-20T12:50:28;11.18;;;6.68;;
35126;SDS011;21300;52.006;5.798;2022-12-20T12:52:58;18.83;;;9.18;;
35126;SDS011;21300;52.006;5.798;2022-12-20T12:55:37;14.20;;;7.20;;
35126;SDS011;21300;52.006;5.798;2022-12-20T13:11:29;17.90;;;9.57;;
35126;SDS011;21300;52.006;5.798;2022-12-20T13:16:41;15.68;;;8.25;;
35126;SDS011;21300;52.006;5.798;2022-12-20T13:19:14;17.70;;;8.85;;
35126;SDS011;21300;52.006;5.798;2022-12-20T13:21:44;17.05;;;8.88;;
35126;SDS011;21300;52.006;5.798;2022-12-20T13:27:14;24.75;;;10.80;;
35126;SDS011;21300;52.006;5.798;2022-12-20T13:40:18;19.05;;;11.10;;
35126;SDS011;21300;52.006;5.798;2022-12-20T13:42:55;25.98;;;13.15;;
35126;SDS011;21300;52.006;5.798;2022-12-20T13:45:21;17.08;;;10.38;;
35126;SDS011;21300;52.006;5.798;2022-12-20T13:47:48;20.80;;;12.30;;
35126;SDS011;21300;52.006;5.798;2022-12-20T13:50:21;21.48;;;11.95;;
35126;SDS011;21300;52.006;5.798;2022-12-20T13:52:55;17.98;;;9.40;;
35126;SDS011;21300;52.006;5.798;2022-12-20T13:55:24;15.13;;;8.68;;
35126;SDS011;21300;52.006;5.798;2022-12-20T13:57:56;18.92;;;10.07;;
35126;SDS011;21300;52.006;5.798;2022-12-20T14:00:27;15.73;;;9.55;;
35126;SDS011;21300;52.006;5.798;2022-12-20T14:02:53;21.02;;;12.52;;
35126;SDS011;21300;52.006;5.798;2022-12-20T14:05:20;21.05;;;12.15;;
35126;SDS011;21300;52.006;5.798;2022-12-20T14:08:00;19.50;;;11.75;;
35126;SDS011;21300;52.006;5.798;2022-12-20T14:10:32;26.00;;;13.32;;
35126;SDS011;21300;52.006;5.798;2022-12-20T14:13:00;23.58;;;11.80;;
35126;SDS011;21300;52.006;5.798;2022-12-20T14:15:33;24.23;;;13.15;;
35126;SDS011;21300;52.006;5.798;2022-12-20T14:18:15;21.52;;;12.23;;
35126;SDS011;21300;52.006;5.798;2022-12-20T14:21:03;18.48;;;9.95;;
35126;SDS011;21300;52.006;5.798;2022-12-20T14:23:37;22.50;;;11.57;;
35126;SDS011;21300;52.006;5.798;2022-12-20T14:28:34;16.52;;;8.80;;
35126;SDS011;21300;52.006;5.798;2022-12-20T14:31:02;18.17;;;10.18;;
35126;SDS011;21300;52.006;5.798;2022-12-20T14:33:39;18.83;;;10.55;;
35126;SDS011;21300;52.006;5.798;2022-12-20T14:36:09;22.85;;;11.75;;
35126;SDS011;21300;52.006;5.798;2022-12-20T14:38:42;18.63;;;9.88;;
35126;SDS011;21300;52.006;5.798;2022-12-20T14:44:12;23.25;;;11.82;;
35126;SDS011;21300;52.006;5.798;2022-12-20T14:46:46;18.55;;;11.98;;
35126;SDS011;21300;52.006;5.798;2022-12-20T14:49:21;19.73;;;11.52;;
35126;SDS011;21300;52.006;5.798;2022-12-20T14:52:05;27.58;;;13.95;;
35126;SDS011;21300;52.006;5.798;2022-12-20T14:57:21;21.80;;;13.93;;
35126;SDS011;21300;52.006;5.798;2022-12-20T15:02:51;26.52;;;14.98;;
35126;SDS011;21300;52.006;5.798;2022-12-20T15:08:14;15.27;;;9.80;;
35126;SDS011;21300;52.006;5.798;2022-12-20T15:13:35;20.77;;;13.35;;
35126;SDS011;21300;52.006;5.798;2022-12-20T15:16:04;20.60;;;12.55;;
35126;SDS011;21300;52.006;5.798;2022-12-20T15:18:38;16.63;;;11.85;;
35126;SDS011;21300;52.006;5.798;2022-12-20T15:24:05;27.48;;;14.20;;
35126;SDS011;21300;52.006;5.798;2022-12-20T15:26:35;25.77;;;16.40;;
35126;SDS011;21300;52.006;5.798;2022-12-20T15:29:00;31.05;;;16.23;;
35126;SDS011;21300;52.006;5.798;2022-12-20T15:31:27;27.88;;;15.18;;
35126;SDS011;21300;52.006;5.798;2022-12-20T15:33:53;31.92;;;16.33;;
35126;SDS011;21300;52.006;5.798;2022-12-20T15:36:25;28.67;;;17.30;;
35126;SDS011;21300;52.006;5.798;2022-12-20T15:38:53;31.20;;;16.35;;
35126;SDS011;21300;52.006;5.798;2022-12-20T15:41:24;26.73;;;13.88;;
35126;SDS011;21300;52.006;5.798;2022-12-20T15:43:58;24.08;;;13.68;;
35126;SDS011;21300;52.006;5.798;2022-12-20T15:46:25;21.00;;;11.68;;
35126;SDS011;21300;52.006;5.798;2022-12-20T15:48:51;25.80;;;14.43;;
35126;SDS011;21300;52.006;5.798;2022-12-20T15:51:27;28.83;;;15.60;;
35126;SDS011;21300;52.006;5.798;2022-12-20T15:53:59;31.35;;;17.63;;
35126;SDS011;21300;52.006;5.798;2022-12-20T15:56:27;27.98;;;14.95;;
35126;SDS011;21300;52.006;5.798;2022-12-20T15:58:53;32.83;;;16.33;;
35126;SDS011;21300;52.006;5.798;2022-12-20T16:01:32;30.00;;;17.13;;
35126;SDS011;21300;52.006;5.798;2022-12-20T16:04:01;33.40;;;17.00;;
35126;SDS011;21300;52.006;5.798;2022-12-20T16:06:27;33.25;;;17.58;;
35126;SDS011;21300;52.006;5.798;2022-12-20T16:08:53;33.58;;;17.13;;
35126;SDS011;21300;52.006;5.798;2022-12-20T16:11:20;34.33;;;18.77;;
35126;SDS011;21300;52.006;5.798;2022-12-20T16:13:51;42.75;;;20.15;;
35126;SDS011;21300;52.006;5.798;2022-12-20T16:16:19;28.23;;;14.80;;
35126;SDS011;21300;52.006;5.798;2022-12-20T16:18:47;42.55;;;19.73;;
35126;SDS011;21300;52.006;5.798;2022-12-20T16:21:16;38.20;;;20.52;;
35126;SDS011;21300;52.006;5.798;2022-12-20T16:23:46;36.20;;;19.20;;
35126;SDS011;21300;52.006;5.798;2022-12-20T16:26:15;44.10;;;21.63;;
35126;SDS011;21300;52.006;5.798;2022-12-20T16:28:41;42.30;;;21.13;;
35126;SDS011;21300;52.006;5.798;2022-12-20T16:33:54;43.20;;;21.88;;
35126;SDS011;21300;52.006;5.798;2022-12-20T16:36:21;48.83;;;22.45;;
35126;SDS011;21300;52.006;5.798;2022-12-20T16:38:47;47.15;;;21.90;;
35126;SDS011;21300;52.006;5.798;2022-12-20T16:41:14;61.92;;;25.40;;
35126;SDS011;21300;52.006;5.798;2022-12-20T16:43:42;44.95;;;22.00;;
35126;SDS011;21300;52.006;5.798;2022-12-20T16:46:09;43.47;;;21.50;;
35126;SDS011;21300;52.006;5.798;2022-12-20T16:48:36;48.55;;;23.25;;
35126;SDS011;21300;52.006;5.798;2022-12-20T16:51:02;56.58;;;24.08;;
35126;SDS011;21300;52.006;5.798;2022-12-20T16:53:28;47.95;;;22.58;;
35126;SDS011;21300;52.006;5.798;2022-12-20T16:55:53;53.88;;;23.73;;
35126;SDS011;21300;52.006;5.798;2022-12-20T16:58:19;53.63;;;24.17;;
35126;SDS011;21300;52.006;5.798;2022-12-20T17:00:45;56.55;;;24.92;;
35126;SDS011;21300;52.006;5.798;2022-12-20T17:03:11;46.65;;;23.08;;
35126;SDS011;21300;52.006;5.798;2022-12-20T17:05:37;43.45;;;22.13;;
35126;SDS011;21300;52.006;5.798;2022-12-20T17:08:03;52.05;;;23.52;;
35126;SDS011;21300;52.006;5.798;2022-12-20T17:10:30;51.58;;;21.83;;
35126;SDS011;21300;52.006;5.798;2022-12-20T17:12:56;44.45;;;21.27;;